sensor_id;sensor_type;location;lat;lon;timestamp;temperature;humidity
11140;DHT22;5624;49.388;11.350;2022-11-20T00:00:46;-0.50;99.90
11140;DHT22;5624;49.388;11.350;2022-11-20T00:03:12;-0.40;99.90
11140;DHT22;5624;49.388;11.350;2022-11-20T00:05:38;-0.40;99.90
11140;DHT22;5624;49.388;11.350;2022-11-20T00:08:04;-0.40;99.90
11140;DHT22;5624;49.388;11.350;2022-11-20T00:10:29;-0.40;99.90
11140;DHT22;5624;49.388;11.350;2022-11-20T00:12:55;-0.40;99.90
11140;DHT22;5624;49.388;11.350;2022-11-20T00:15:22;-0.40;99.90
11140;DHT22;5624;49.388;11.350;2022-11-20T00:17:48;-0.40;99.90
11140;DHT22;5624;49.388;11.350;2022-11-20T00:20:14;-0.50;99.90
11140;DHT22;5624;49.388;11.350;2022-11-20T00:22:39;-0.40;99.90
11140;DHT22;5624;49.388;11.350;2022-11-20T00:25:05;-0.50;99.90
11140;DHT22;5624;49.388;11.350;2022-11-20T00:27:31;-0.40;99.90
11140;DHT22;5624;49.388;11.350;2022-11-20T00:29:56;-0.40;99.90
11140;DHT22;5624;49.388;11.350;2022-11-20T00:32:22;-0.40;99.90
11140;DHT22;5624;49.388;11.350;2022-11-20T00:34:47;-0.30;99.90
11140;DHT22;5624;49.388;11.350;2022-11-20T00:37:13;-0.30;99.90
11140;DHT22;5624;49.388;11.350;2022-11-20T00:39:38;-0.30;99.90
11140;DHT22;5624;49.388;11.350;2022-11-20T00:42:04;-0.30;99.20
11140;DHT22;5624;49.388;11.350;2022-11-20T00:44:30;-0.30;99.90
11140;DHT22;5624;49.388;11.350;2022-11-20T00:46:55;-0.30;99.90
11140;DHT22;5624;49.388;11.350;2022-11-20T00:49:21;-0.30;99.90
11140;DHT22;5624;49.388;11.350;2022-11-20T00:51:47;-0.40;99.90
11140;DHT22;5624;49.388;11.350;2022-11-20T00:54:12;-0.40;99.90
11140;DHT22;5624;49.388;11.350;2022-11-20T00:56:38;-0.40;99.90
11140;DHT22;5624;49.388;11.350;2022-11-20T00:59:04;-0.40;99.90
11140;DHT22;5624;49.388;11.350;2022-11-20T01:01:29;-0.40;99.90
11140;DHT22;5624;49.388;11.350;2022-11-20T01:03:57;-0.40;99.90
11140;DHT22;5624;49.388;11.350;2022-11-20T01:06:26;-0.30;99.90
11140;DHT22;5624;49.388;11.350;2022-11-20T01:08:54;-0.30;99.90
11140;DHT22;5624;49.388;11.350;2022-11-20T01:11:24;-0.40;99.90
11140;DHT22;5624;49.388;11.350;2022-11-20T01:13:51;-0.30;99.90
11140;DHT22;5624;49.388;11.350;2022-11-20T01:16:37;-0.40;99.90
11140;DHT22;5624;49.388;11.350;2022-11-20T01:19:04;-0.40;99.90
11140;DHT22;5624;49.388;11.350;2022-11-20T01:21:32;-0.40;99.90
11140;DHT22;5624;49.388;11.350;2022-11-20T01:23:59;-0.40;99.90
11140;DHT22;5624;49.388;11.350;2022-11-20T01:26:31;-0.30;99.90
11140;DHT22;5624;49.388;11.350;2022-11-20T01:28:57;-0.30;99.90
11140;DHT22;5624;49.388;11.350;2022-11-20T01:31:25;-0.30;99.90
11140;DHT22;5624;49.388;11.350;2022-11-20T01:33:53;-0.30;99.90
11140;DHT22;5624;49.388;11.350;2022-11-20T01:36:20;-0.30;99.90
11140;DHT22;5624;49.388;11.350;2022-11-20T01:38:47;-0.30;99.90
11140;DHT22;5624;49.388;11.350;2022-11-20T01:41:14;-0.30;99.90
11140;DHT22;5624;49.388;11.350;2022-11-20T01:44:00;-0.30;99.90
11140;DHT22;5624;49.388;11.350;2022-11-20T01:46:25;-0.30;99.90
11140;DHT22;5624;49.388;11.350;2022-11-20T01:48:56;-0.30;99.90
11140;DHT22;5624;49.388;11.350;2022-11-20T01:51:33;-0.30;99.90
11140;DHT22;5624;49.388;11.350;2022-11-20T01:54:04;-0.30;99.90
11140;DHT22;5624;49.388;11.350;2022-11-20T01:56:33;-0.30;99.90
11140;DHT22;5624;49.388;11.350;2022-11-20T01:59:02;-0.20;99.90
11140;DHT22;5624;49.388;11.350;2022-11-20T02:01:29;-0.20;99.90
11140;DHT22;5624;49.388;11.350;2022-11-20T02:03:55;-0.10;99.90
11140;DHT22;5624;49.388;11.350;2022-11-20T02:06:28;-0.20;99.90
11140;DHT22;5624;49.388;11.350;2022-11-20T02:08:55;-0.10;99.90
11140;DHT22;5624;49.388;11.350;2022-11-20T02:11:20;-0.20;99.90
11140;DHT22;5624;49.388;11.350;2022-11-20T02:13:47;-0.30;99.90
11140;DHT22;5624;49.388;11.350;2022-11-20T02:18:48;-0.30;99.90
11140;DHT22;5624;49.388;11.350;2022-11-20T02:24:10;-0.20;99.90
11140;DHT22;5624;49.388;11.350;2022-11-20T02:26:47;-0.30;99.90
11140;DHT22;5624;49.388;11.350;2022-11-20T02:29:19;-0.30;99.90
11140;DHT22;5624;49.388;11.350;2022-11-20T02:31:47;-0.20;99.90
11140;DHT22;5624;49.388;11.350;2022-11-20T02:34:13;-0.20;99.90
11140;DHT22;5624;49.388;11.350;2022-11-20T02:36:40;-0.20;99.90
11140;DHT22;5624;49.388;11.350;2022-11-20T02:39:07;-0.20;99.90
11140;DHT22;5624;49.388;11.350;2022-11-20T02:41:36;-0.20;99.90
11140;DHT22;5624;49.388;11.350;2022-11-20T02:44:03;-0.20;99.90
11140;DHT22;5624;49.388;11.350;2022-11-20T02:46:29;-0.20;99.90
11140;DHT22;5624;49.388;11.350;2022-11-20T02:48:55;-0.20;99.90
11140;DHT22;5624;49.388;11.350;2022-11-20T02:51:21;-0.20;99.90
11140;DHT22;5624;49.388;11.350;2022-11-20T02:53:47;-0.20;99.90
11140;DHT22;5624;49.388;11.350;2022-11-20T02:56:12;-0.20;99.90
11140;DHT22;5624;49.388;11.350;2022-11-20T02:58:38;-0.20;99.90
11140;DHT22;5624;49.388;11.350;2022-11-20T03:01:04;-0.10;99.90
11140;DHT22;5624;49.388;11.350;2022-11-20T03:03:29;-0.20;99.90
11140;DHT22;5624;49.388;11.350;2022-11-20T03:05:55;-0.20;99.90
11140;DHT22;5624;49.388;11.350;2022-11-20T03:08:20;0.00;99.90
11140;DHT22;5624;49.388;11.350;2022-11-20T03:10:46;-0.10;99.90
11140;DHT22;5624;49.388;11.350;2022-11-20T03:13:12;-0.10;99.90
11140;DHT22;5624;49.388;11.350;2022-11-20T03:15:37;-0.10;99.90
11140;DHT22;5624;49.388;11.350;2022-11-20T03:18:03;0.00;99.90
11140;DHT22;5624;49.388;11.350;2022-11-20T03:20:29;0.00;99.90
11140;DHT22;5624;49.388;11.350;2022-11-20T03:22:55;0.00;99.90
11140;DHT22;5624;49.388;11.350;2022-11-20T03:25:21;0.00;99.90
11140;DHT22;5624;49.388;11.350;2022-11-20T03:27:46;0.00;99.90
11140;DHT22;5624;49.388;11.350;2022-11-20T03:30:13;0.00;99.90
11140;DHT22;5624;49.388;11.350;2022-11-20T03:32:39;0.00;99.90
11140;DHT22;5624;49.388;11.350;2022-11-20T03:35:05;0.00;99.90
11140;DHT22;5624;49.388;11.350;2022-11-20T03:37:31;0.00;99.90
11140;DHT22;5624;49.388;11.350;2022-11-20T03:39:57;0.00;99.90
11140;DHT22;5624;49.388;11.350;2022-11-20T03:42:23;0.00;99.90
11140;DHT22;5624;49.388;11.350;2022-11-20T03:45:07;0.00;99.90
11140;DHT22;5624;49.388;11.350;2022-11-20T03:47:33;0.00;99.90
11140;DHT22;5624;49.388;11.350;2022-11-20T03:49:58;0.00;99.90
11140;DHT22;5624;49.388;11.350;2022-11-20T03:52:24;0.00;99.90
11140;DHT22;5624;49.388;11.350;2022-11-20T03:54:49;0.00;99.90
11140;DHT22;5624;49.388;11.350;2022-11-20T03:57:15;0.00;99.90
11140;DHT22;5624;49.388;11.350;2022-11-20T03:59:41;0.00;99.90
11140;DHT22;5624;49.388;11.350;2022-11-20T04:02:06;0.00;99.90
11140;DHT22;5624;49.388;11.350;2022-11-20T04:04:32;0.00;99.90
11140;DHT22;5624;49.388;11.350;2022-11-20T04:06:57;0.00;99.90
11140;DHT22;5624;49.388;11.350;2022-11-20T04:09:23;0.00;99.90
11140;DHT22;5624;49.388;11.350;2022-11-20T04:11:48;0.00;99.90
11140;DHT22;5624;49.388;11.350;2022-11-20T04:14:15;0.00;99.90
11140;DHT22;5624;49.388;11.350;2022-11-20T04:16:41;0.00;99.90
11140;DHT22;5624;49.388;11.350;2022-11-20T04:19:10;0.00;99.90
11140;DHT22;5624;49.388;11.350;2022-11-20T04:21:37;0.00;99.90
11140;DHT22;5624;49.388;11.350;2022-11-20T04:24:03;0.00;99.90
11140;DHT22;5624;49.388;11.350;2022-11-20T04:26:30;0.00;99.90
11140;DHT22;5624;49.388;11.350;2022-11-20T04:28:56;0.10;99.90
11140;DHT22;5624;49.388;11.350;2022-11-20T04:31:27;0.00;99.90
11140;DHT22;5624;49.388;11.350;2022-11-20T04:33:53;0.10;99.90
11140;DHT22;5624;49.388;11.350;2022-11-20T04:36:24;0.10;99.90
11140;DHT22;5624;49.388;11.350;2022-11-20T04:38:54;0.00;99.90
11140;DHT22;5624;49.388;11.350;2022-11-20T04:41:21;0.10;99.90
11140;DHT22;5624;49.388;11.350;2022-11-20T04:43:52;0.00;99.90
11140;DHT22;5624;49.388;11.350;2022-11-20T04:46:19;0.00;99.90
11140;DHT22;5624;49.388;11.350;2022-11-20T04:48:45;0.00;99.90
11140;DHT22;5624;49.388;11.350;2022-11-20T04:51:11;0.10;99.90
11140;DHT22;5624;49.388;11.350;2022-11-20T04:53:37;0.10;99.90
11140;DHT22;5624;49.388;11.350;2022-11-20T04:56:05;0.10;99.90
11140;DHT22;5624;49.388;11.350;2022-11-20T04:58:32;0.20;99.90
11140;DHT22;5624;49.388;11.350;2022-11-20T05:01:12;0.20;99.90
11140;DHT22;5624;49.388;11.350;2022-11-20T05:03:39;0.10;99.90
11140;DHT22;5624;49.388;11.350;2022-11-20T05:06:06;0.20;99.90
11140;DHT22;5624;49.388;11.350;2022-11-20T05:08:32;0.20;99.90
11140;DHT22;5624;49.388;11.350;2022-11-20T05:11:06;0.20;99.90
11140;DHT22;5624;49.388;11.350;2022-11-20T05:13:32;0.20;99.90
11140;DHT22;5624;49.388;11.350;2022-11-20T05:16:05;0.20;99.90
11140;DHT22;5624;49.388;11.350;2022-11-20T05:18:33;0.20;99.90
11140;DHT22;5624;49.388;11.350;2022-11-20T05:20:59;0.20;99.90
11140;DHT22;5624;49.388;11.350;2022-11-20T05:23:26;0.20;99.90
11140;DHT22;5624;49.388;11.350;2022-11-20T05:25:56;0.20;99.90
11140;DHT22;5624;49.388;11.350;2022-11-20T05:28:23;0.20;99.90
11140;DHT22;5624;49.388;11.350;2022-11-20T05:30:49;0.40;99.90
11140;DHT22;5624;49.388;11.350;2022-11-20T05:33:15;0.30;99.90
11140;DHT22;5624;49.388;11.350;2022-11-20T05:35:41;0.50;99.90
11140;DHT22;5624;49.388;11.350;2022-11-20T05:38:07;0.40;99.90
11140;DHT22;5624;49.388;11.350;2022-11-20T05:40:32;0.40;99.90
11140;DHT22;5624;49.388;11.350;2022-11-20T05:42:59;0.30;99.90
11140;DHT22;5624;49.388;11.350;2022-11-20T05:45:24;0.30;99.90
11140;DHT22;5624;49.388;11.350;2022-11-20T05:47:50;0.30;99.90
11140;DHT22;5624;49.388;11.350;2022-11-20T05:50:16;0.40;99.90
11140;DHT22;5624;49.388;11.350;2022-11-20T05:52:42;0.30;99.90
11140;DHT22;5624;49.388;11.350;2022-11-20T05:55:08;0.40;99.90
11140;DHT22;5624;49.388;11.350;2022-11-20T05:57:34;0.40;99.90
11140;DHT22;5624;49.388;11.350;2022-11-20T06:00:00;0.50;99.90
11140;DHT22;5624;49.388;11.350;2022-11-20T06:02:26;0.40;99.90
11140;DHT22;5624;49.388;11.350;2022-11-20T06:04:52;0.30;99.90
11140;DHT22;5624;49.388;11.350;2022-11-20T06:07:17;0.40;99.90
11140;DHT22;5624;49.388;11.350;2022-11-20T06:09:43;0.30;99.90
11140;DHT22;5624;49.388;11.350;2022-11-20T06:12:08;0.30;99.90
11140;DHT22;5624;49.388;11.350;2022-11-20T06:14:34;0.30;99.90
11140;DHT22;5624;49.388;11.350;2022-11-20T06:16:59;0.30;99.90
11140;DHT22;5624;49.388;11.350;2022-11-20T06:19:25;0.30;99.90
11140;DHT22;5624;49.388;11.350;2022-11-20T06:21:51;0.30;99.90
11140;DHT22;5624;49.388;11.350;2022-11-20T06:24:17;0.30;99.90
11140;DHT22;5624;49.388;11.350;2022-11-20T06:26:43;0.30;99.90
11140;DHT22;5624;49.388;11.350;2022-11-20T06:29:09;0.30;99.90
11140;DHT22;5624;49.388;11.350;2022-11-20T06:31:35;0.30;99.90
11140;DHT22;5624;49.388;11.350;2022-11-20T06:34:06;0.40;99.90
11140;DHT22;5624;49.388;11.350;2022-11-20T06:36:33;0.40;99.90
11140;DHT22;5624;49.388;11.350;2022-11-20T06:38:59;0.50;99.90
11140;DHT22;5624;49.388;11.350;2022-11-20T06:41:25;0.50;99.90
11140;DHT22;5624;49.388;11.350;2022-11-20T06:43:51;0.50;99.90
11140;DHT22;5624;49.388;11.350;2022-11-20T06:46:18;0.50;99.90
11140;DHT22;5624;49.388;11.350;2022-11-20T06:48:44;0.60;99.90
11140;DHT22;5624;49.388;11.350;2022-11-20T06:51:10;0.60;99.90
11140;DHT22;5624;49.388;11.350;2022-11-20T06:53:36;0.60;99.90
11140;DHT22;5624;49.388;11.350;2022-11-20T06:56:02;0.60;99.90
11140;DHT22;5624;49.388;11.350;2022-11-20T06:58:30;0.60;99.90
11140;DHT22;5624;49.388;11.350;2022-11-20T07:01:01;0.60;99.90
11140;DHT22;5624;49.388;11.350;2022-11-20T07:03:27;0.60;99.90
11140;DHT22;5624;49.388;11.350;2022-11-20T07:05:57;0.70;99.90
11140;DHT22;5624;49.388;11.350;2022-11-20T07:08:24;0.60;99.90
11140;DHT22;5624;49.388;11.350;2022-11-20T07:10:50;0.80;99.90
11140;DHT22;5624;49.388;11.350;2022-11-20T07:13:15;0.70;99.90
11140;DHT22;5624;49.388;11.350;2022-11-20T07:15:41;0.70;99.90
11140;DHT22;5624;49.388;11.350;2022-11-20T07:18:07;0.70;99.90
11140;DHT22;5624;49.388;11.350;2022-11-20T07:20:32;0.60;99.90
11140;DHT22;5624;49.388;11.350;2022-11-20T07:22:58;0.60;99.90
11140;DHT22;5624;49.388;11.350;2022-11-20T07:25:25;0.60;99.90
11140;DHT22;5624;49.388;11.350;2022-11-20T07:27:51;0.50;99.90
11140;DHT22;5624;49.388;11.350;2022-11-20T07:30:18;0.50;99.90
11140;DHT22;5624;49.388;11.350;2022-11-20T07:32:47;0.50;99.90
11140;DHT22;5624;49.388;11.350;2022-11-20T07:35:13;0.60;99.90
11140;DHT22;5624;49.388;11.350;2022-11-20T07:37:39;0.60;99.90
11140;DHT22;5624;49.388;11.350;2022-11-20T07:40:04;0.60;99.90
11140;DHT22;5624;49.388;11.350;2022-11-20T07:42:30;0.60;99.90
11140;DHT22;5624;49.388;11.350;2022-11-20T07:44:56;0.70;99.90
11140;DHT22;5624;49.388;11.350;2022-11-20T07:47:22;0.70;99.90
11140;DHT22;5624;49.388;11.350;2022-11-20T07:49:47;0.80;99.90
11140;DHT22;5624;49.388;11.350;2022-11-20T07:52:13;0.80;99.90
11140;DHT22;5624;49.388;11.350;2022-11-20T07:54:38;0.90;99.90
11140;DHT22;5624;49.388;11.350;2022-11-20T07:57:04;0.90;99.90
11140;DHT22;5624;49.388;11.350;2022-11-20T07:59:29;1.00;99.90
11140;DHT22;5624;49.388;11.350;2022-11-20T08:01:55;1.00;99.90
11140;DHT22;5624;49.388;11.350;2022-11-20T08:04:21;1.00;99.90
11140;DHT22;5624;49.388;11.350;2022-11-20T08:06:46;1.00;99.90
11140;DHT22;5624;49.388;11.350;2022-11-20T08:09:12;1.00;99.90
11140;DHT22;5624;49.388;11.350;2022-11-20T08:11:38;0.90;99.90
11140;DHT22;5624;49.388;11.350;2022-11-20T08:14:22;0.90;99.90
11140;DHT22;5624;49.388;11.350;2022-11-20T08:16:49;0.90;99.90
11140;DHT22;5624;49.388;11.350;2022-11-20T08:19:16;0.90;99.90
11140;DHT22;5624;49.388;11.350;2022-11-20T08:21:42;1.00;99.90
11140;DHT22;5624;49.388;11.350;2022-11-20T08:24:09;1.10;99.90
11140;DHT22;5624;49.388;11.350;2022-11-20T08:26:36;1.10;99.90
11140;DHT22;5624;49.388;11.350;2022-11-20T08:29:02;1.10;99.90
11140;DHT22;5624;49.388;11.350;2022-11-20T08:31:28;1.10;99.90
11140;DHT22;5624;49.388;11.350;2022-11-20T08:33:55;1.10;99.90
11140;DHT22;5624;49.388;11.350;2022-11-20T08:36:22;1.10;99.90
11140;DHT22;5624;49.388;11.350;2022-11-20T08:38:55;1.10;99.90
11140;DHT22;5624;49.388;11.350;2022-11-20T08:41:21;1.10;99.90
11140;DHT22;5624;49.388;11.350;2022-11-20T08:43:59;1.10;99.90
11140;DHT22;5624;49.388;11.350;2022-11-20T08:46:26;1.20;99.90
11140;DHT22;5624;49.388;11.350;2022-11-20T08:48:53;1.20;99.90
11140;DHT22;5624;49.388;11.350;2022-11-20T08:51:19;1.30;99.90
11140;DHT22;5624;49.388;11.350;2022-11-20T08:53:45;1.30;99.90
11140;DHT22;5624;49.388;11.350;2022-11-20T08:56:12;1.40;99.90
11140;DHT22;5624;49.388;11.350;2022-11-20T08:58:38;1.50;99.90
11140;DHT22;5624;49.388;11.350;2022-11-20T09:01:04;1.60;99.90
11140;DHT22;5624;49.388;11.350;2022-11-20T09:03:30;1.70;99.90
11140;DHT22;5624;49.388;11.350;2022-11-20T09:06:04;1.80;99.90
11140;DHT22;5624;49.388;11.350;2022-11-20T09:08:30;1.90;99.90
11140;DHT22;5624;49.388;11.350;2022-11-20T09:10:56;2.00;99.90
11140;DHT22;5624;49.388;11.350;2022-11-20T09:13:23;2.10;99.90
11140;DHT22;5624;49.388;11.350;2022-11-20T09:16:01;2.20;98.60
11140;DHT22;5624;49.388;11.350;2022-11-20T09:18:27;2.10;96.80
11140;DHT22;5624;49.388;11.350;2022-11-20T09:21:01;2.00;97.10
11140;DHT22;5624;49.388;11.350;2022-11-20T09:23:30;1.90;97.00
11140;DHT22;5624;49.388;11.350;2022-11-20T09:25:56;1.90;97.40
11140;DHT22;5624;49.388;11.350;2022-11-20T09:28:25;1.80;98.20
11140;DHT22;5624;49.388;11.350;2022-11-20T09:30:51;1.80;99.20
11140;DHT22;5624;49.388;11.350;2022-11-20T09:33:17;1.80;99.40
11140;DHT22;5624;49.388;11.350;2022-11-20T09:35:43;1.80;99.90
11140;DHT22;5624;49.388;11.350;2022-11-20T09:38:10;1.80;99.90
11140;DHT22;5624;49.388;11.350;2022-11-20T09:40:40;1.90;99.90
11140;DHT22;5624;49.388;11.350;2022-11-20T09:48:42;2.30;99.90
11140;DHT22;5624;49.388;11.350;2022-11-20T09:54:25;2.30;99.90
11140;DHT22;5624;49.388;11.350;2022-11-20T09:56:55;2.60;99.90
11140;DHT22;5624;49.388;11.350;2022-11-20T09:59:55;2.70;99.90
11140;DHT22;5624;49.388;11.350;2022-11-20T10:02:39;2.70;99.30
11140;DHT22;5624;49.388;11.350;2022-11-20T10:05:11;2.70;99.10
11140;DHT22;5624;49.388;11.350;2022-11-20T10:10:52;2.60;99.80
11140;DHT22;5624;49.388;11.350;2022-11-20T10:24:56;2.80;98.30
11140;DHT22;5624;49.388;11.350;2022-11-20T10:27:47;2.90;98.50
11140;DHT22;5624;49.388;11.350;2022-11-20T10:30:19;2.80;99.00
11140;DHT22;5624;49.388;11.350;2022-11-20T10:32:51;2.90;99.40
11140;DHT22;5624;49.388;11.350;2022-11-20T10:35:37;2.90;99.30
11140;DHT22;5624;49.388;11.350;2022-11-20T10:38:10;2.90;99.40
11140;DHT22;5624;49.388;11.350;2022-11-20T10:40:41;2.90;99.60
11140;DHT22;5624;49.388;11.350;2022-11-20T10:48:33;2.90;99.90
11140;DHT22;5624;49.388;11.350;2022-11-20T10:54:15;2.90;99.90
11140;DHT22;5624;49.388;11.350;2022-11-20T10:56:51;2.90;99.90
11140;DHT22;5624;49.388;11.350;2022-11-20T11:02:21;3.00;99.90
11140;DHT22;5624;49.388;11.350;2022-11-20T11:04:50;3.00;99.90
11140;DHT22;5624;49.388;11.350;2022-11-20T11:07:31;3.00;99.90
11140;DHT22;5624;49.388;11.350;2022-11-20T11:09:59;3.10;99.90
11140;DHT22;5624;49.388;11.350;2022-11-20T11:12:27;3.30;99.90
11140;DHT22;5624;49.388;11.350;2022-11-20T11:14:55;3.20;99.90
11140;DHT22;5624;49.388;11.350;2022-11-20T11:17:23;3.10;99.90
11140;DHT22;5624;49.388;11.350;2022-11-20T11:22:58;3.20;99.90
11140;DHT22;5624;49.388;11.350;2022-11-20T11:27:55;3.20;99.90
11140;DHT22;5624;49.388;11.350;2022-11-20T11:30:22;3.20;99.90
11140;DHT22;5624;49.388;11.350;2022-11-20T11:32:48;3.30;99.90
11140;DHT22;5624;49.388;11.350;2022-11-20T11:35:28;3.40;99.90
11140;DHT22;5624;49.388;11.350;2022-11-20T11:38:15;3.70;99.90
11140;DHT22;5624;49.388;11.350;2022-11-20T11:40:42;3.80;99.90
11140;DHT22;5624;49.388;11.350;2022-11-20T11:43:20;3.90;99.90
11140;DHT22;5624;49.388;11.350;2022-11-20T11:46:25;4.00;99.60
11140;DHT22;5624;49.388;11.350;2022-11-20T11:49:18;4.10;99.40
11140;DHT22;5624;49.388;11.350;2022-11-20T12:02:38;3.10;98.60
11140;DHT22;5624;49.388;11.350;2022-11-20T12:07:47;3.20;98.50
11140;DHT22;5624;49.388;11.350;2022-11-20T12:12:50;3.20;98.10
11140;DHT22;5624;49.388;11.350;2022-11-20T12:15:29;3.10;97.90
11140;DHT22;5624;49.388;11.350;2022-11-20T12:17:55;3.10;97.00
11140;DHT22;5624;49.388;11.350;2022-11-20T12:20:26;3.10;97.20
11140;DHT22;5624;49.388;11.350;2022-11-20T12:23:05;3.00;96.70
11140;DHT22;5624;49.388;11.350;2022-11-20T12:25:35;2.90;97.00
11140;DHT22;5624;49.388;11.350;2022-11-20T12:30:33;2.90;97.20
11140;DHT22;5624;49.388;11.350;2022-11-20T12:55:23;2.60;99.70
11140;DHT22;5624;49.388;11.350;2022-11-20T12:58:01;2.70;99.50
11140;DHT22;5624;49.388;11.350;2022-11-20T13:00:30;2.70;99.50
11140;DHT22;5624;49.388;11.350;2022-11-20T13:06:18;2.90;99.20
11140;DHT22;5624;49.388;11.350;2022-11-20T13:08:54;3.00;99.10
11140;DHT22;5624;49.388;11.350;2022-11-20T13:14:39;3.00;98.40
11140;DHT22;5624;49.388;11.350;2022-11-20T13:17:11;3.10;98.60
11140;DHT22;5624;49.388;11.350;2022-11-20T13:19:39;2.90;97.90
11140;DHT22;5624;49.388;11.350;2022-11-20T13:22:08;2.90;98.60
11140;DHT22;5624;49.388;11.350;2022-11-20T13:24:35;2.90;98.70
11140;DHT22;5624;49.388;11.350;2022-11-20T13:29:34;2.90;98.20
11140;DHT22;5624;49.388;11.350;2022-11-20T13:32:21;2.80;98.80
11140;DHT22;5624;49.388;11.350;2022-11-20T13:34:58;2.80;99.30
11140;DHT22;5624;49.388;11.350;2022-11-20T13:37:32;2.70;99.80
11140;DHT22;5624;49.388;11.350;2022-11-20T13:40:25;2.70;99.90
11140;DHT22;5624;49.388;11.350;2022-11-20T13:43:19;2.60;99.90
11140;DHT22;5624;49.388;11.350;2022-11-20T13:46:00;2.60;99.90
11140;DHT22;5624;49.388;11.350;2022-11-20T13:48:33;2.60;99.90
11140;DHT22;5624;49.388;11.350;2022-11-20T13:51:05;2.50;99.90
11140;DHT22;5624;49.388;11.350;2022-11-20T13:53:44;2.50;99.90
11140;DHT22;5624;49.388;11.350;2022-11-20T13:58:59;2.50;99.90
11140;DHT22;5624;49.388;11.350;2022-11-20T14:01:30;2.50;99.90
11140;DHT22;5624;49.388;11.350;2022-11-20T14:04:06;2.50;99.90
11140;DHT22;5624;49.388;11.350;2022-11-20T14:06:40;2.50;99.90
11140;DHT22;5624;49.388;11.350;2022-11-20T14:09:24;2.50;99.90
11140;DHT22;5624;49.388;11.350;2022-11-20T14:11:50;2.50;99.90
11140;DHT22;5624;49.388;11.350;2022-11-20T14:14:19;2.50;99.90
11140;DHT22;5624;49.388;11.350;2022-11-20T14:16:47;2.50;99.90
11140;DHT22;5624;49.388;11.350;2022-11-20T14:21:49;2.40;99.90
11140;DHT22;5624;49.388;11.350;2022-11-20T14:24:24;2.40;99.90
11140;DHT22;5624;49.388;11.350;2022-11-20T14:26:50;2.50;99.90
11140;DHT22;5624;49.388;11.350;2022-11-20T14:29:22;2.40;99.90
11140;DHT22;5624;49.388;11.350;2022-11-20T14:31:52;2.40;99.90
11140;DHT22;5624;49.388;11.350;2022-11-20T14:34:39;2.30;99.90
11140;DHT22;5624;49.388;11.350;2022-11-20T14:37:17;2.40;99.90
11140;DHT22;5624;49.388;11.350;2022-11-20T14:39:53;2.40;99.90
11140;DHT22;5624;49.388;11.350;2022-11-20T14:42:26;2.30;99.90
11140;DHT22;5624;49.388;11.350;2022-11-20T14:44:55;2.30;99.90
11140;DHT22;5624;49.388;11.350;2022-11-20T14:47:27;2.30;99.90
11140;DHT22;5624;49.388;11.350;2022-11-20T14:49:55;2.20;99.90
11140;DHT22;5624;49.388;11.350;2022-11-20T14:52:26;2.20;99.90
11140;DHT22;5624;49.388;11.350;2022-11-20T14:54:56;2.20;99.90
11140;DHT22;5624;49.388;11.350;2022-11-20T14:57:30;2.20;99.90
11140;DHT22;5624;49.388;11.350;2022-11-20T15:02:45;2.30;99.90
11140;DHT22;5624;49.388;11.350;2022-11-20T15:05:12;2.30;99.90
11140;DHT22;5624;49.388;11.350;2022-11-20T15:07:40;2.30;99.90
11140;DHT22;5624;49.388;11.350;2022-11-20T15:12:45;2.30;99.90
11140;DHT22;5624;49.388;11.350;2022-11-20T15:15:16;2.20;99.90
11140;DHT22;5624;49.388;11.350;2022-11-20T15:17:43;2.20;99.90
11140;DHT22;5624;49.388;11.350;2022-11-20T15:20:13;2.20;99.90
11140;DHT22;5624;49.388;11.350;2022-11-20T15:22:39;2.20;99.90
11140;DHT22;5624;49.388;11.350;2022-11-20T15:25:17;2.20;99.90
11140;DHT22;5624;49.388;11.350;2022-11-20T15:27:44;2.20;99.90
11140;DHT22;5624;49.388;11.350;2022-11-20T15:30:18;2.20;99.90
11140;DHT22;5624;49.388;11.350;2022-11-20T15:32:44;2.30;99.90
11140;DHT22;5624;49.388;11.350;2022-11-20T15:35:11;2.30;99.90
11140;DHT22;5624;49.388;11.350;2022-11-20T15:37:38;2.30;99.90
11140;DHT22;5624;49.388;11.350;2022-11-20T15:40:05;2.20;99.90
11140;DHT22;5624;49.388;11.350;2022-11-20T15:42:31;2.20;99.90
11140;DHT22;5624;49.388;11.350;2022-11-20T15:44:57;2.20;99.90
11140;DHT22;5624;49.388;11.350;2022-11-20T15:47:30;2.20;99.90
11140;DHT22;5624;49.388;11.350;2022-11-20T15:49:56;2.20;99.90
11140;DHT22;5624;49.388;11.350;2022-11-20T15:52:22;2.20;99.90
11140;DHT22;5624;49.388;11.350;2022-11-20T15:54:47;2.20;99.90
11140;DHT22;5624;49.388;11.350;2022-11-20T15:57:13;2.20;99.90
11140;DHT22;5624;49.388;11.350;2022-11-20T15:59:39;2.20;99.90
11140;DHT22;5624;49.388;11.350;2022-11-20T16:02:14;2.20;99.90
11140;DHT22;5624;49.388;11.350;2022-11-20T16:04:40;2.20;99.90
11140;DHT22;5624;49.388;11.350;2022-11-20T16:07:06;2.20;99.90
11140;DHT22;5624;49.388;11.350;2022-11-20T16:09:32;2.20;99.90
11140;DHT22;5624;49.388;11.350;2022-11-20T16:11:58;2.20;99.90
11140;DHT22;5624;49.388;11.350;2022-11-20T16:14:25;2.20;99.90
11140;DHT22;5624;49.388;11.350;2022-11-20T16:17:09;2.20;99.90
11140;DHT22;5624;49.388;11.350;2022-11-20T16:19:35;2.20;99.90
11140;DHT22;5624;49.388;11.350;2022-11-20T16:22:01;2.30;99.90
11140;DHT22;5624;49.388;11.350;2022-11-20T16:24:27;2.30;99.90
11140;DHT22;5624;49.388;11.350;2022-11-20T16:26:53;2.30;99.90
11140;DHT22;5624;49.388;11.350;2022-11-20T16:29:19;2.30;99.90
11140;DHT22;5624;49.388;11.350;2022-11-20T16:31:44;2.30;99.90
11140;DHT22;5624;49.388;11.350;2022-11-20T16:34:10;2.30;99.90
11140;DHT22;5624;49.388;11.350;2022-11-20T16:36:39;2.30;99.90
11140;DHT22;5624;49.388;11.350;2022-11-20T16:39:05;2.20;99.90
11140;DHT22;5624;49.388;11.350;2022-11-20T16:41:32;2.30;99.90
11140;DHT22;5624;49.388;11.350;2022-11-20T16:43:59;2.20;99.90
11140;DHT22;5624;49.388;11.350;2022-11-20T16:46:28;2.20;99.90
11140;DHT22;5624;49.388;11.350;2022-11-20T16:49:16;2.20;99.90
11140;DHT22;5624;49.388;11.350;2022-11-20T16:51:41;2.30;99.90
11140;DHT22;5624;49.388;11.350;2022-11-20T16:54:08;2.30;99.90
11140;DHT22;5624;49.388;11.350;2022-11-20T16:56:35;2.30;99.90
11140;DHT22;5624;49.388;11.350;2022-11-20T16:59:02;2.30;99.90
11140;DHT22;5624;49.388;11.350;2022-11-20T17:01:28;2.30;99.90
11140;DHT22;5624;49.388;11.350;2022-11-20T17:06:26;2.20;99.90
11140;DHT22;5624;49.388;11.350;2022-11-20T17:08:53;2.20;99.90
11140;DHT22;5624;49.388;11.350;2022-11-20T17:11:19;2.10;99.90
11140;DHT22;5624;49.388;11.350;2022-11-20T17:13:45;2.10;99.90
11140;DHT22;5624;49.388;11.350;2022-11-20T17:16:14;2.10;99.90
11140;DHT22;5624;49.388;11.350;2022-11-20T17:18:41;2.10;99.90
11140;DHT22;5624;49.388;11.350;2022-11-20T17:21:07;2.10;99.90
11140;DHT22;5624;49.388;11.350;2022-11-20T17:23:41;2.20;99.90
11140;DHT22;5624;49.388;11.350;2022-11-20T17:26:18;2.20;99.90
11140;DHT22;5624;49.388;11.350;2022-11-20T17:28:44;2.20;99.90
11140;DHT22;5624;49.388;11.350;2022-11-20T17:31:15;2.10;99.90
11140;DHT22;5624;49.388;11.350;2022-11-20T17:33:43;2.00;99.90
11140;DHT22;5624;49.388;11.350;2022-11-20T17:36:11;2.00;99.90
11140;DHT22;5624;49.388;11.350;2022-11-20T17:38:37;1.90;99.90
11140;DHT22;5624;49.388;11.350;2022-11-20T17:41:04;1.90;99.90